createdAt,value
2018-04-16T00:00:45.878Z,0.00
2018-04-16T00:01:45.879Z,0.00
2018-04-16T00:02:45.875Z,0.00
2018-04-16T00:03:45.875Z,0.00
2018-04-16T00:04:45.871Z,0.00
2018-04-16T00:05:45.868Z,0.00
2018-04-16T00:06:45.869Z,0.00
2018-04-16T00:07:45.867Z,0.00
2018-04-16T00:08:45.862Z,0.00
2018-04-16T00:09:45.863Z,0.00
2018-04-16T00:10:45.860Z,0.00
2018-04-16T00:11:45.859Z,0.00
2018-04-16T00:12:45.855Z,0.00
2018-04-16T00:13:45.855Z,0.00
2018-04-16T00:14:45.853Z,0.00
2018-04-16T00:15:45.853Z,0.00
2018-04-16T00:16:45.850Z,0.00
2018-04-16T00:17:45.846Z,0.00
2018-04-16T00:18:45.846Z,0.00
2018-04-16T00:19:45.844Z,0.00
2018-04-16T00:20:45.836Z,0.00
2018-04-16T00:21:45.838Z,0.00
2018-04-16T00:22:45.836Z,0.00
2018-04-16T00:23:45.835Z,0.00
2018-04-16T00:24:45.830Z,0.00
2018-04-16T00:25:45.829Z,0.00
2018-04-16T00:26:45.825Z,0.00
2018-04-16T00:27:45.831Z,0.00
2018-04-16T00:28:45.823Z,0.00
2018-04-16T00:29:45.820Z,0.00
2018-04-16T00:30:45.866Z,0.00
2018-04-16T00:31:45.816Z,0.00
2018-04-16T00:32:45.813Z,0.00
2018-04-16T00:33:45.812Z,0.00
2018-04-16T00:34:45.811Z,0.00
2018-04-16T00:35:45.809Z,0.00
2018-04-16T00:36:45.805Z,0.00
2018-04-16T00:37:45.808Z,0.00
2018-04-16T00:38:45.802Z,0.00
2018-04-16T00:39:45.800Z,0.00
2018-04-16T00:40:45.799Z,0.00
2018-04-16T00:41:45.795Z,0.00
2018-04-16T00:42:45.791Z,0.00
2018-04-16T00:43:45.789Z,0.00
2018-04-16T00:44:45.787Z,0.00
2018-04-16T00:45:45.787Z,0.00
2018-04-16T00:46:45.783Z,0.00
2018-04-16T00:47:45.776Z,0.00
2018-04-16T00:48:45.778Z,0.00
2018-04-16T00:49:45.780Z,0.00
2018-04-16T00:50:45.782Z,0.00
2018-04-16T00:51:45.778Z,0.00
2018-04-16T00:52:45.773Z,0.00
2018-04-16T00:53:45.766Z,0.00
2018-04-16T00:54:45.772Z,0.00
2018-04-16T00:55:45.768Z,0.00
2018-04-16T00:56:45.761Z,0.00
2018-04-16T00:57:45.762Z,0.00
2018-04-16T00:58:45.760Z,0.00
2018-04-16T00:59:45.755Z,0.00
2018-04-16T01:00:45.749Z,0.00
2018-04-16T01:01:45.751Z,0.00
2018-04-16T01:02:45.749Z,0.00
2018-04-16T01:03:45.747Z,0.00
2018-04-16T01:04:45.752Z,0.00
2018-04-16T01:05:45.741Z,0.00
2018-04-16T01:06:45.737Z,0.00
2018-04-16T01:07:45.738Z,0.00
2018-04-16T01:08:45.734Z,0.00
2018-04-16T01:09:45.732Z,0.00
2018-04-16T01:10:45.729Z,0.00
2018-04-16T01:11:45.733Z,0.00
2018-04-16T01:12:45.726Z,0.00
2018-04-16T01:13:45.728Z,0.00
2018-04-16T01:14:45.723Z,0.00
2018-04-16T01:15:45.720Z,0.00
2018-04-16T01:16:45.716Z,0.00
2018-04-16T01:17:45.715Z,0.00
2018-04-16T01:18:45.711Z,0.00
2018-04-16T01:19:45.711Z,0.00
2018-04-16T01:20:45.709Z,0.00
2018-04-16T01:21:45.706Z,0.00
2018-04-16T01:22:45.702Z,0.00
2018-04-16T01:23:45.701Z,0.00
2018-04-16T01:24:45.700Z,0.00
2018-04-16T01:25:45.700Z,0.00
2018-04-16T01:26:45.695Z,0.00
2018-04-16T01:27:45.695Z,0.00
2018-04-16T01:28:45.690Z,0.00
2018-04-16T01:29:45.687Z,0.00
2018-04-16T01:30:45.687Z,0.00
2018-04-16T01:31:45.686Z,0.00
2018-04-16T01:32:45.683Z,0.00
2018-04-16T01:33:45.681Z,0.00
2018-04-16T01:34:45.679Z,0.00
2018-04-16T01:35:45.678Z,0.00
2018-04-16T01:36:45.682Z,0.00
2018-04-16T01:37:45.675Z,0.00
2018-04-16T01:38:45.676Z,0.00
2018-04-16T01:39:45.671Z,0.00
2018-04-16T01:40:45.671Z,0.00
2018-04-16T01:41:45.662Z,0.00
2018-04-16T01:42:45.658Z,0.00
2018-04-16T01:43:45.662Z,0.00
2018-04-16T01:44:45.668Z,0.00
2018-04-16T01:45:45.657Z,0.00
2018-04-16T01:46:45.653Z,0.00
2018-04-16T01:47:45.652Z,0.00
2018-04-16T01:48:45.648Z,0.00
2018-04-16T01:49:45.645Z,0.00
2018-04-16T01:50:45.645Z,0.00
2018-04-16T01:51:45.647Z,0.00
2018-04-16T01:52:45.642Z,0.00
2018-04-16T01:53:45.640Z,0.00
2018-04-16T01:54:45.634Z,0.00
2018-04-16T01:55:45.633Z,0.00
2018-04-16T01:56:45.634Z,0.00
2018-04-16T01:57:45.629Z,0.00
2018-04-16T01:58:45.627Z,0.00
2018-04-16T01:59:45.630Z,0.00
2018-04-16T02:00:45.621Z,0.00
2018-04-16T02:01:45.616Z,0.00
2018-04-16T02:02:45.619Z,0.00
2018-04-16T02:03:45.614Z,0.00
2018-04-16T02:04:45.610Z,0.00
2018-04-16T02:05:45.609Z,0.00
2018-04-16T02:06:45.606Z,0.00
2018-04-16T02:07:45.602Z,0.00
2018-04-16T02:08:45.600Z,0.00
2018-04-16T02:09:45.598Z,0.00
2018-04-16T02:10:45.598Z,0.00
2018-04-16T02:11:45.599Z,0.00
2018-04-16T02:12:45.590Z,0.00
2018-04-16T02:13:45.588Z,0.00
2018-04-16T02:14:45.594Z,0.00
2018-04-16T02:15:45.584Z,0.00
2018-04-16T02:16:45.580Z,0.00
2018-04-16T02:17:45.581Z,0.00
2018-04-16T02:18:45.576Z,0.00
2018-04-16T02:19:45.573Z,0.00
2018-04-16T02:20:45.569Z,0.00
2018-04-16T02:21:45.569Z,0.00
2018-04-16T02:22:45.565Z,0.00
2018-04-16T02:23:45.561Z,0.00
2018-04-16T02:24:45.558Z,0.00
2018-04-16T02:25:45.560Z,0.00
2018-04-16T02:26:45.554Z,0.00
2018-04-16T02:27:45.556Z,0.00
2018-04-16T02:28:45.551Z,0.00
2018-04-16T02:29:45.542Z,0.00
2018-04-16T02:30:45.543Z,0.00
2018-04-16T02:31:45.543Z,0.00
2018-04-16T02:32:45.542Z,0.00
2018-04-16T02:33:45.532Z,0.00
2018-04-16T02:34:45.535Z,0.00
2018-04-16T02:35:45.535Z,0.00
2018-04-16T02:36:45.523Z,0.00
2018-04-16T02:37:45.540Z,0.00
2018-04-16T02:38:45.522Z,0.00
2018-04-16T02:39:45.520Z,0.00
2018-04-16T02:40:45.518Z,0.00
2018-04-16T02:41:45.515Z,0.00
2018-04-16T02:42:45.519Z,0.00
2018-04-16T02:43:45.515Z,0.00
2018-04-16T02:44:45.508Z,0.00
2018-04-16T02:45:45.505Z,0.00
2018-04-16T02:46:45.500Z,0.00
2018-04-16T02:47:45.503Z,0.00
2018-04-16T02:48:45.497Z,0.00
2018-04-16T02:49:45.493Z,0.00
2018-04-16T02:50:45.489Z,0.00
2018-04-16T02:51:45.492Z,0.00
2018-04-16T02:52:45.484Z,0.00
2018-04-16T02:53:45.485Z,0.00
2018-04-16T02:54:45.487Z,0.00
2018-04-16T02:55:45.477Z,0.00
2018-04-16T02:56:45.485Z,0.00
2018-04-16T02:57:45.473Z,0.00
2018-04-16T02:58:45.471Z,0.00
2018-04-16T02:59:45.468Z,0.00
2018-04-16T03:00:45.468Z,0.00
2018-04-16T03:01:45.462Z,0.00
2018-04-16T03:02:45.467Z,0.00
2018-04-16T03:03:45.458Z,0.00
2018-04-16T03:04:45.453Z,0.00
2018-04-16T03:05:45.451Z,0.00
2018-04-16T03:06:45.450Z,0.00
2018-04-16T03:07:45.447Z,0.00
2018-04-16T03:08:45.444Z,0.00
2018-04-16T03:09:45.441Z,0.00
2018-04-16T03:10:45.439Z,0.00
2018-04-16T03:11:45.438Z,0.00
2018-04-16T03:12:45.435Z,0.00
2018-04-16T03:13:45.483Z,0.00
2018-04-16T03:14:45.430Z,0.00
2018-04-16T03:15:45.427Z,0.00
2018-04-16T03:16:45.423Z,0.00
2018-04-16T03:17:45.421Z,0.00
2018-04-16T03:18:45.420Z,0.00
2018-04-16T03:19:45.417Z,0.00
2018-04-16T03:20:45.450Z,0.00
2018-04-16T03:21:45.412Z,0.00
2018-04-16T03:22:45.405Z,0.00
2018-04-16T03:23:45.409Z,0.00
2018-04-16T03:24:45.407Z,0.00
2018-04-16T03:25:45.400Z,0.00
2018-04-16T03:26:45.403Z,0.00
2018-04-16T03:27:45.392Z,0.00
2018-04-16T03:28:45.395Z,0.00
2018-04-16T03:29:45.393Z,0.00
2018-04-16T03:30:45.393Z,0.00
2018-04-16T03:31:45.385Z,0.00
2018-04-16T03:32:45.383Z,0.00
2018-04-16T03:33:45.381Z,0.00
2018-04-16T03:34:45.381Z,0.00
2018-04-16T03:35:45.380Z,0.00
2018-04-16T03:36:45.373Z,0.00
2018-04-16T03:37:45.370Z,0.00
2018-04-16T03:38:45.374Z,0.00
2018-04-16T03:39:45.365Z,0.00
2018-04-16T03:40:45.363Z,0.00
2018-04-16T03:41:45.361Z,0.00
2018-04-16T03:42:45.359Z,0.00
2018-04-16T03:43:45.356Z,0.00
2018-04-16T03:44:45.353Z,0.00
2018-04-16T03:45:45.349Z,0.00
2018-04-16T03:46:45.348Z,4.00
2018-04-16T03:47:45.345Z,4.00
2018-04-16T03:48:45.344Z,0.00
2018-04-16T03:49:45.346Z,0.00
2018-04-16T03:50:45.338Z,4.00
2018-04-16T03:51:45.336Z,4.00
2018-04-16T03:52:45.333Z,8.00
2018-04-16T03:53:45.330Z,4.00
2018-04-16T03:54:45.329Z,8.00
2018-04-16T03:55:45.326Z,8.00
2018-04-16T03:56:45.327Z,8.00
2018-04-16T03:57:45.315Z,8.00
2018-04-16T03:58:45.318Z,8.00
2018-04-16T03:59:45.316Z,12.00
2018-04-16T04:00:45.317Z,12.00
2018-04-16T04:01:45.311Z,16.00
2018-04-16T04:02:45.308Z,16.00
2018-04-16T04:03:45.306Z,16.00
2018-04-16T04:04:45.305Z,20.00
2018-04-16T04:05:45.300Z,24.00
2018-04-16T04:06:45.299Z,24.00
2018-04-16T04:07:45.299Z,28.00
2018-04-16T04:08:45.294Z,32.00
2018-04-16T04:09:45.292Z,36.00
2018-04-16T04:10:45.294Z,36.00
2018-04-16T04:11:45.288Z,36.00
2018-04-16T04:12:45.284Z,44.00
2018-04-16T04:13:45.286Z,48.00
2018-04-16T04:14:45.280Z,52.00
2018-04-16T04:15:45.277Z,52.00
2018-04-16T04:16:45.273Z,60.00
2018-04-16T04:17:45.274Z,68.00
2018-04-16T04:18:45.273Z,76.00
2018-04-16T04:19:45.272Z,84.00
2018-04-16T04:20:45.265Z,92.00
2018-04-16T04:21:45.264Z,96.00
2018-04-16T04:22:45.258Z,104.00
2018-04-16T04:23:45.256Z,108.00
2018-04-16T04:24:45.257Z,120.00
2018-04-16T04:25:45.270Z,128.00
2018-04-16T04:26:45.248Z,136.00
2018-04-16T04:27:45.245Z,140.00
2018-04-16T04:28:45.243Z,144.00
2018-04-16T04:29:45.246Z,148.00
2018-04-16T04:30:45.237Z,152.00
2018-04-16T04:31:45.237Z,156.00
2018-04-16T04:32:45.236Z,164.00
2018-04-16T04:33:45.230Z,172.00
2018-04-16T04:34:45.234Z,180.00
2018-04-16T04:35:45.227Z,192.00
2018-04-16T04:36:45.223Z,200.00
2018-04-16T04:37:45.221Z,208.00
2018-04-16T04:38:45.218Z,216.00
2018-04-16T04:39:45.216Z,224.00
2018-04-16T04:40:45.224Z,236.00
2018-04-16T04:41:45.211Z,244.00
2018-04-16T04:42:45.208Z,256.00
2018-04-16T04:43:45.208Z,272.00
2018-04-16T04:44:45.201Z,292.00
2018-04-16T04:45:45.201Z,316.00
2018-04-16T04:46:45.201Z,348.00
2018-04-16T04:47:45.193Z,368.00
2018-04-16T04:48:45.191Z,376.00
2018-04-16T04:49:45.187Z,392.00
2018-04-16T04:50:45.189Z,400.00
2018-04-16T04:51:45.186Z,408.00
2018-04-16T04:52:45.181Z,408.00
2018-04-16T04:53:45.196Z,408.00
2018-04-16T04:54:45.176Z,420.00
2018-04-16T04:55:45.172Z,436.00
2018-04-16T04:56:45.169Z,456.00
2018-04-16T04:57:45.173Z,472.00
2018-04-16T04:58:45.165Z,488.00
2018-04-16T04:59:45.161Z,508.00
2018-04-16T05:00:45.158Z,516.00
2018-04-16T05:01:45.163Z,512.00
2018-04-16T05:02:45.154Z,484.00
2018-04-16T05:03:45.165Z,456.00
2018-04-16T05:04:45.148Z,440.00
2018-04-16T05:05:45.148Z,432.00
2018-04-16T05:06:45.145Z,432.00
2018-04-16T05:07:45.146Z,440.00
2018-04-16T05:08:45.138Z,448.00
2018-04-16T05:09:45.136Z,464.00
2018-04-16T05:10:45.133Z,480.00
2018-04-16T05:11:45.130Z,492.00
2018-04-16T05:12:45.133Z,496.00
2018-04-16T05:13:45.123Z,496.00
2018-04-16T05:14:45.124Z,496.00
2018-04-16T05:15:45.120Z,496.00
2018-04-16T05:16:45.112Z,496.00
2018-04-16T05:17:45.127Z,508.00
2018-04-16T05:18:45.110Z,520.00
2018-04-16T05:19:45.109Z,544.00
2018-04-16T05:20:45.104Z,572.00
2018-04-16T05:21:45.102Z,608.00
2018-04-16T05:22:45.099Z,636.00
2018-04-16T05:23:45.099Z,652.00
2018-04-16T05:24:45.093Z,648.00
2018-04-16T05:25:45.092Z,628.00
2018-04-16T05:26:45.090Z,620.00
2018-04-16T05:27:45.083Z,628.00
2018-04-16T05:28:45.081Z,648.00
2018-04-16T05:29:45.079Z,692.00
2018-04-16T05:30:45.082Z,760.00
2018-04-16T05:31:45.081Z,836.00
2018-04-16T05:32:45.072Z,912.00
2018-04-16T05:33:45.070Z,956.00
2018-04-16T05:34:45.065Z,956.00
2018-04-16T05:35:45.066Z,928.00
2018-04-16T05:36:45.059Z,888.00
2018-04-16T05:37:45.055Z,848.00
2018-04-16T05:38:45.054Z,828.00
2018-04-16T05:39:45.060Z,828.00
2018-04-16T05:40:45.051Z,824.00
2018-04-16T05:41:45.045Z,800.00
2018-04-16T05:42:45.043Z,744.00
2018-04-16T05:43:45.042Z,696.00
2018-04-16T05:44:45.034Z,664.00
2018-04-16T05:45:45.037Z,652.00
2018-04-16T05:46:45.032Z,640.00
2018-04-16T05:47:45.032Z,636.00
2018-04-16T05:48:45.028Z,644.00
2018-04-16T05:49:45.024Z,652.00
2018-04-16T05:50:45.022Z,664.00
2018-04-16T05:51:45.016Z,676.00
2018-04-16T05:52:45.013Z,676.00
2018-04-16T05:53:45.009Z,664.00
2018-04-16T05:54:45.005Z,648.00
2018-04-16T05:55:45.003Z,644.00
2018-04-16T05:56:45.000Z,652.00
2018-04-16T05:57:44.997Z,676.00
2018-04-16T05:58:44.992Z,704.00
2018-04-16T05:59:44.994Z,736.00
2018-04-16T06:00:44.993Z,744.00
2018-04-16T06:01:44.985Z,748.00
2018-04-16T06:02:44.985Z,732.00
2018-04-16T06:03:44.981Z,724.00
2018-04-16T06:04:44.982Z,724.00
2018-04-16T06:05:44.975Z,740.00
2018-04-16T06:06:44.971Z,772.00
2018-04-16T06:07:45.020Z,808.00
2018-04-16T06:08:45.015Z,836.00
2018-04-16T06:09:44.962Z,864.00
2018-04-16T06:10:44.960Z,892.00
2018-04-16T06:11:44.957Z,928.00
2018-04-16T06:12:44.951Z,972.00
2018-04-16T06:13:44.956Z,1024.00
2018-04-16T06:14:44.949Z,1076.00
2018-04-16T06:15:44.944Z,1124.00
2018-04-16T06:16:44.944Z,1164.00
2018-04-16T06:17:44.939Z,1200.00
2018-04-16T06:18:44.935Z,1232.00
2018-04-16T06:19:44.933Z,1260.00
2018-04-16T06:20:44.929Z,1280.00
2018-04-16T06:21:44.930Z,1300.00
2018-04-16T06:22:44.936Z,1312.00
2018-04-16T06:23:44.943Z,1320.00
2018-04-16T06:24:44.952Z,1324.00
2018-04-16T06:25:44.959Z,1328.00
2018-04-16T06:26:44.963Z,1340.00
2018-04-16T06:27:44.983Z,1368.00
2018-04-16T06:28:44.979Z,1408.00
2018-04-16T06:29:45.028Z,1448.00
2018-04-16T06:30:44.901Z,1480.00
2018-04-16T06:31:44.900Z,1508.00
2018-04-16T06:32:44.900Z,1548.00
2018-04-16T06:33:44.903Z,1592.00
2018-04-16T06:34:44.892Z,1648.00
2018-04-16T06:35:45.081Z,1712.00
2018-04-16T06:36:44.894Z,1776.00
2018-04-16T06:37:44.883Z,1840.00
2018-04-16T06:38:44.919Z,1908.00
2018-04-16T06:39:44.879Z,1956.00
2018-04-16T06:40:44.881Z,1992.00
2018-04-16T06:41:45.017Z,2008.00
2018-04-16T06:42:44.869Z,2000.00
2018-04-16T06:43:44.868Z,1980.00
2018-04-16T06:44:44.865Z,1920.00
2018-04-16T06:45:44.861Z,1840.00
2018-04-16T06:46:44.858Z,1756.00
2018-04-16T06:47:44.859Z,1688.00
2018-04-16T06:48:44.852Z,1660.00
2018-04-16T06:49:44.850Z,1676.00
2018-04-16T06:50:44.850Z,1744.00
2018-04-16T06:51:44.844Z,1844.00
2018-04-16T06:52:44.840Z,1944.00
2018-04-16T06:53:44.840Z,2020.00
2018-04-16T06:54:44.840Z,2072.00
2018-04-16T06:55:44.835Z,2096.00
2018-04-16T06:56:44.832Z,2100.00
2018-04-16T06:57:44.833Z,2084.00
2018-04-16T06:58:44.825Z,2056.00
2018-04-16T06:59:44.824Z,1984.00
2018-04-16T07:00:44.825Z,1876.00
2018-04-16T07:01:44.823Z,1812.00
2018-04-16T07:02:44.817Z,1800.00
2018-04-16T07:03:44.816Z,1800.00
2018-04-16T07:04:44.816Z,1808.00
2018-04-16T07:05:44.818Z,1820.00
2018-04-16T07:06:44.810Z,1832.00
2018-04-16T07:07:44.807Z,1872.00
2018-04-16T07:08:44.809Z,1944.00
2018-04-16T07:09:44.796Z,2008.00
2018-04-16T07:10:44.798Z,2052.00
2018-04-16T07:11:44.798Z,2072.00
2018-04-16T07:12:44.795Z,2080.00
2018-04-16T07:13:44.792Z,2096.00
2018-04-16T07:14:44.792Z,2080.00
2018-04-16T07:15:44.840Z,2056.00
2018-04-16T07:16:44.786Z,2060.00
2018-04-16T07:17:44.792Z,2064.00
2018-04-16T07:18:44.782Z,2084.00
2018-04-16T07:19:44.779Z,2076.00
2018-04-16T07:20:44.780Z,2016.00
2018-04-16T07:21:44.775Z,1928.00
2018-04-16T07:22:44.777Z,1848.00
2018-04-16T07:23:44.775Z,1796.00
2018-04-16T07:24:44.768Z,1796.00
2018-04-16T07:25:44.765Z,1820.00
2018-04-16T07:26:44.769Z,1812.00
2018-04-16T07:27:44.796Z,1768.00
2018-04-16T07:28:44.757Z,1692.00
2018-04-16T07:29:44.766Z,1620.00
2018-04-16T07:30:44.755Z,1544.00
2018-04-16T07:31:44.752Z,1516.00
2018-04-16T07:32:44.747Z,1512.00
2018-04-16T07:33:44.940Z,1528.00
2018-04-16T07:34:44.745Z,1568.00
2018-04-16T07:35:44.777Z,1576.00
2018-04-16T07:36:44.737Z,1548.00
2018-04-16T07:37:44.738Z,1504.00
2018-04-16T07:38:44.735Z,1484.00
2018-04-16T07:39:44.815Z,1492.00
2018-04-16T07:40:44.743Z,1564.00
2018-04-16T07:41:44.730Z,1648.00
2018-04-16T07:42:44.727Z,1736.00
2018-04-16T07:43:44.767Z,1800.00
2018-04-16T07:44:44.729Z,1864.00
2018-04-16T07:45:45.250Z,1960.00
2018-04-16T07:46:44.720Z,2064.00
2018-04-16T07:47:44.718Z,2164.00
2018-04-16T07:48:44.719Z,2224.00
2018-04-16T07:49:44.715Z,2220.00
2018-04-16T07:50:44.712Z,2200.00
2018-04-16T07:51:44.715Z,2208.00
2018-04-16T07:52:44.705Z,2212.00
2018-04-16T07:53:44.711Z,2236.00
2018-04-16T07:54:44.704Z,2296.00
2018-04-16T07:55:44.701Z,2332.00
2018-04-16T07:56:44.697Z,2380.00
2018-04-16T07:57:44.881Z,2508.00
2018-04-16T07:58:44.695Z,2656.00
2018-04-16T07:59:44.696Z,2724.00
2018-04-16T08:00:44.690Z,2748.00
2018-04-16T08:01:44.688Z,2728.00
2018-04-16T08:02:44.694Z,2696.00
2018-04-16T08:03:44.690Z,2664.00
2018-04-16T08:04:44.683Z,2656.00
2018-04-16T08:05:44.738Z,2660.00
2018-04-16T08:06:44.688Z,2688.00
2018-04-16T08:07:44.674Z,2668.00
2018-04-16T08:08:44.678Z,2660.00
2018-04-16T08:09:44.673Z,2680.00
2018-04-16T08:10:44.669Z,2704.00
2018-04-16T08:11:44.665Z,2760.00
2018-04-16T08:12:44.667Z,2788.00
2018-04-16T08:13:44.666Z,2840.00
2018-04-16T08:14:44.666Z,2944.00
2018-04-16T08:15:44.710Z,2992.00
2018-04-16T08:16:44.663Z,3000.00
2018-04-16T08:17:44.655Z,2976.00
2018-04-16T08:18:44.654Z,2956.00
2018-04-16T08:19:44.651Z,2940.00
2018-04-16T08:20:44.650Z,2992.00
2018-04-16T08:21:44.648Z,3084.00
2018-04-16T08:22:44.646Z,3168.00
2018-04-16T08:23:44.781Z,3268.00
2018-04-16T08:24:44.641Z,3304.00
2018-04-16T08:25:44.641Z,3316.00
2018-04-16T08:26:44.645Z,3304.00
2018-04-16T08:27:44.635Z,3288.00
2018-04-16T08:28:44.641Z,3300.00
2018-04-16T08:29:44.677Z,3336.00
2018-04-16T08:30:44.630Z,3392.00
2018-04-16T08:31:44.641Z,3480.00
2018-04-16T08:32:44.626Z,3576.00
2018-04-16T08:33:44.626Z,3664.00
2018-04-16T08:34:44.624Z,3768.00
2018-04-16T08:35:44.621Z,3864.00
2018-04-16T08:36:44.618Z,3880.00
2018-04-16T08:37:44.618Z,3868.00
2018-04-16T08:38:44.625Z,3844.00
2018-04-16T08:39:44.614Z,3872.00
2018-04-16T08:40:44.611Z,3972.00
2018-04-16T08:41:44.612Z,4104.00
2018-04-16T08:42:44.608Z,4280.00
2018-04-16T08:43:44.603Z,4472.00
2018-04-16T08:44:44.602Z,4644.00
2018-04-16T08:45:44.602Z,4696.00
2018-04-16T08:46:44.598Z,4652.00
2018-04-16T08:47:44.595Z,4536.00
2018-04-16T08:48:44.599Z,4448.00
2018-04-16T08:49:44.593Z,4416.00
2018-04-16T08:50:44.591Z,4448.00
2018-04-16T08:51:44.590Z,4496.00
2018-04-16T08:52:44.585Z,4556.00
2018-04-16T08:53:44.590Z,4616.00
2018-04-16T08:54:44.579Z,4696.00
2018-04-16T08:55:44.580Z,4788.00
2018-04-16T08:56:44.577Z,4880.00
2018-04-16T08:57:44.584Z,5004.00
2018-04-16T08:58:44.575Z,5096.00
2018-04-16T08:59:44.579Z,5096.00
2018-04-16T09:00:44.570Z,5056.00
2018-04-16T09:01:44.569Z,5004.00
2018-04-16T09:02:44.567Z,5028.00
2018-04-16T09:03:44.570Z,5168.00
2018-04-16T09:04:44.563Z,5456.00
2018-04-16T09:05:44.563Z,5744.00
2018-04-16T09:06:44.561Z,6184.00
2018-04-16T09:07:44.564Z,6396.00
2018-04-16T09:08:44.603Z,6532.00
2018-04-16T09:09:44.554Z,6328.00
2018-04-16T09:10:44.554Z,5984.00
2018-04-16T09:11:44.553Z,5600.00
2018-04-16T09:12:44.733Z,5376.00
2018-04-16T09:13:44.549Z,5296.00
2018-04-16T09:14:44.544Z,5332.00
2018-04-16T09:15:44.758Z,5312.00
2018-04-16T09:16:44.543Z,5292.00
2018-04-16T09:17:44.542Z,5320.00
2018-04-16T09:18:44.542Z,5392.00
2018-04-16T09:19:44.608Z,5508.00
2018-04-16T09:20:44.537Z,5708.00
2018-04-16T09:21:44.657Z,5904.00
2018-04-16T09:22:44.539Z,6060.00
2018-04-16T09:23:44.534Z,6148.00
2018-04-16T09:24:44.547Z,6156.00
2018-04-16T09:25:44.531Z,6176.00
2018-04-16T09:26:44.536Z,6216.00
2018-04-16T09:27:44.527Z,6244.00
2018-04-16T09:28:44.531Z,6192.00
2018-04-16T09:29:44.585Z,6052.00
2018-04-16T09:30:44.524Z,6052.00
2018-04-16T09:31:44.521Z,6152.00
2018-04-16T09:32:44.529Z,6276.00
2018-04-16T09:33:44.520Z,6432.00
2018-04-16T09:34:44.518Z,6628.00
2018-04-16T09:35:44.519Z,6832.00
2018-04-16T09:36:44.518Z,7084.00
2018-04-16T09:37:44.515Z,7116.00
2018-04-16T09:38:44.511Z,7068.00
2018-04-16T09:39:44.524Z,7044.00
2018-04-16T09:40:44.512Z,7004.00
2018-04-16T09:41:44.516Z,6932.00
2018-04-16T09:42:44.510Z,6848.00
2018-04-16T09:43:44.522Z,6808.00
2018-04-16T09:44:44.510Z,6792.00
2018-04-16T09:45:44.511Z,6776.00
2018-04-16T09:46:44.508Z,6812.00
2018-04-16T09:47:44.504Z,6856.00
2018-04-16T09:48:44.697Z,6880.00
2018-04-16T09:49:44.503Z,6912.00
2018-04-16T09:50:44.500Z,6952.00
2018-04-16T09:51:44.501Z,7136.00
2018-04-16T09:52:44.505Z,7204.00
2018-04-16T09:53:44.500Z,7248.00
2018-04-16T09:54:44.499Z,7268.00
2018-04-16T09:55:44.497Z,7268.00
2018-04-16T09:56:44.495Z,7280.00
2018-04-16T09:57:44.496Z,7312.00
2018-04-16T09:58:44.494Z,7392.00
2018-04-16T09:59:44.512Z,7524.00
2018-04-16T10:00:44.495Z,7668.00
2018-04-16T10:01:44.493Z,7792.00
2018-04-16T10:02:44.485Z,7876.00
2018-04-16T10:03:44.488Z,7916.00
2018-04-16T10:04:44.500Z,7900.00
2018-04-16T10:05:44.491Z,7832.00
2018-04-16T10:06:44.487Z,7696.00
2018-04-16T10:07:44.495Z,7536.00
2018-04-16T10:08:44.485Z,7380.00
2018-04-16T10:09:44.484Z,7252.00
2018-04-16T10:10:44.484Z,7180.00
2018-04-16T10:11:44.486Z,7148.00
2018-04-16T10:12:44.481Z,7132.00
2018-04-16T10:13:44.481Z,7128.00
2018-04-16T10:14:44.483Z,7152.00
2018-04-16T10:15:44.502Z,7180.00
2018-04-16T10:16:44.485Z,7204.00
2018-04-16T10:17:44.479Z,7204.00
2018-04-16T10:18:44.479Z,7188.00
2018-04-16T10:19:44.484Z,7144.00
2018-04-16T10:20:44.477Z,7064.00
2018-04-16T10:21:44.477Z,6940.00
2018-04-16T10:22:44.476Z,6788.00
2018-04-16T10:23:44.482Z,6624.00
2018-04-16T10:24:44.476Z,6464.00
2018-04-16T10:25:44.475Z,6348.00
2018-04-16T10:26:44.476Z,6276.00
2018-04-16T10:27:44.478Z,6252.00
2018-04-16T10:28:44.475Z,6264.00
2018-04-16T10:29:44.478Z,6320.00
2018-04-16T10:30:44.475Z,6408.00
2018-04-16T10:31:44.485Z,6548.00
2018-04-16T10:32:44.473Z,6692.00
2018-04-16T10:33:44.503Z,6824.00
2018-04-16T10:34:44.670Z,6928.00
2018-04-16T10:35:44.474Z,7000.00
2018-04-16T10:36:44.474Z,7052.00
2018-04-16T10:37:44.497Z,7100.00
2018-04-16T10:38:44.473Z,7184.00
2018-04-16T10:39:44.473Z,7336.00
2018-04-16T10:40:44.472Z,7584.00
2018-04-16T10:41:44.579Z,7888.00
2018-04-16T10:42:44.482Z,8160.00
2018-04-16T10:43:44.474Z,8348.00
2018-04-16T10:44:44.471Z,8464.00
2018-04-16T10:45:44.475Z,8572.00
2018-04-16T10:46:44.470Z,8740.00
2018-04-16T10:47:44.472Z,8988.00
2018-04-16T10:48:44.472Z,9212.00
2018-04-16T10:49:44.532Z,9292.00
2018-04-16T10:50:44.615Z,9292.00
2018-04-16T10:51:44.481Z,9448.00
2018-04-16T10:52:44.474Z,9788.00
2018-04-16T10:53:44.473Z,10128.00
2018-04-16T10:54:44.472Z,10312.00
2018-04-16T10:55:44.474Z,10360.00
2018-04-16T10:56:44.472Z,10364.00
2018-04-16T10:57:44.558Z,10420.00
2018-04-16T10:58:44.477Z,10536.00
2018-04-16T10:59:44.534Z,10600.00
2018-04-16T11:00:44.544Z,10572.00
2018-04-16T11:01:44.785Z,10472.00
2018-04-16T11:02:44.499Z,10344.00
2018-04-16T11:03:44.483Z,10224.00
2018-04-16T11:04:44.602Z,10132.00
2018-04-16T11:05:44.485Z,10056.00
2018-04-16T11:06:44.481Z,9988.00
2018-04-16T11:07:44.477Z,9904.00
2018-04-16T11:08:44.481Z,9788.00
2018-04-16T11:09:44.723Z,9636.00
2018-04-16T11:10:44.501Z,9460.00
2018-04-16T11:11:44.487Z,9320.00
2018-04-16T11:12:44.482Z,9252.00
2018-04-16T11:13:44.613Z,9224.00
2018-04-16T11:14:44.488Z,9260.00
2018-04-16T11:15:44.520Z,9292.00
2018-04-16T11:16:44.490Z,9304.00
2018-04-16T11:17:44.548Z,9288.00
2018-04-16T11:18:44.493Z,9240.00
2018-04-16T11:19:44.767Z,9168.00
2018-04-16T11:20:44.493Z,9152.00
2018-04-16T11:21:44.496Z,9172.00
2018-04-16T11:22:44.496Z,9248.00
2018-04-16T11:23:44.501Z,9280.00
2018-04-16T11:24:44.747Z,9252.00
2018-04-16T11:25:44.499Z,9168.00
2018-04-16T11:26:45.138Z,9064.00
2018-04-16T11:27:44.878Z,8932.00
2018-04-16T11:28:44.825Z,8748.00
2018-04-16T11:29:44.552Z,8676.00
2018-04-16T11:30:44.510Z,8676.00
2018-04-16T11:31:44.508Z,8720.00
2018-04-16T11:32:44.517Z,8792.00
2018-04-16T11:33:44.510Z,8868.00
2018-04-16T11:34:44.511Z,8928.00
2018-04-16T11:35:44.515Z,8944.00
2018-04-16T11:36:44.523Z,8924.00
2018-04-16T11:37:44.514Z,8900.00
2018-04-16T11:38:44.517Z,8868.00
2018-04-16T11:39:44.521Z,8836.00
2018-04-16T11:40:44.518Z,8804.00
2018-04-16T11:41:44.522Z,8788.00
2018-04-16T11:42:44.528Z,8780.00
2018-04-16T11:43:44.621Z,8776.00
2018-04-16T11:44:44.528Z,8784.00
2018-04-16T11:45:44.648Z,8812.00
2018-04-16T11:46:44.565Z,8828.00
2018-04-16T11:47:44.528Z,8832.00
2018-04-16T11:48:44.606Z,8824.00
2018-04-16T11:49:44.532Z,8796.00
2018-04-16T11:50:44.530Z,8752.00
2018-04-16T11:51:44.544Z,8684.00
2018-04-16T11:52:44.534Z,8604.00
2018-04-16T11:53:44.650Z,8512.00
2018-04-16T11:54:44.536Z,8440.00
2018-04-16T11:55:44.545Z,8372.00
2018-04-16T11:56:44.538Z,8308.00
2018-04-16T11:57:44.539Z,8260.00
2018-04-16T11:58:44.581Z,8196.00
2018-04-16T11:59:44.544Z,8128.00
2018-04-16T12:00:44.646Z,8052.00
2018-04-16T12:01:44.551Z,7964.00
2018-04-16T12:02:44.551Z,7856.00
2018-04-16T12:03:44.551Z,7740.00
2018-04-16T12:04:44.571Z,7680.00
2018-04-16T12:05:44.553Z,7600.00
2018-04-16T12:06:44.553Z,7492.00
2018-04-16T12:07:44.555Z,7356.00
2018-04-16T12:08:44.553Z,7288.00
2018-04-16T12:09:44.699Z,7268.00
2018-04-16T12:10:44.560Z,7252.00
2018-04-16T12:11:44.561Z,7268.00
2018-04-16T12:12:44.563Z,7316.00
2018-04-16T12:13:44.564Z,7392.00
2018-04-16T12:14:44.571Z,7452.00
2018-04-16T12:15:44.568Z,7472.00
2018-04-16T12:16:44.568Z,7400.00
2018-04-16T12:17:44.579Z,7260.00
2018-04-16T12:18:44.573Z,7116.00
2018-04-16T12:19:44.613Z,7008.00
2018-04-16T12:20:44.582Z,6968.00
2018-04-16T12:21:44.576Z,7028.00
2018-04-16T12:22:44.575Z,7192.00
2018-04-16T12:23:44.631Z,7420.00
2018-04-16T12:24:44.580Z,7636.00
2018-04-16T12:25:44.750Z,7864.00
2018-04-16T12:26:44.580Z,8080.00
2018-04-16T12:27:44.633Z,8240.00
2018-04-16T12:28:44.585Z,8304.00
2018-04-16T12:29:44.586Z,8252.00
2018-04-16T12:30:44.591Z,8128.00
2018-04-16T12:31:44.590Z,8024.00